Detall de PIREP

Printer-friendly versionPDF version

[2013/06/14 10:52:00]
Flight IATA:CT2300
Pilot Number:011
Company ICAO:CAT
Aircraft Type:B738/F
PAX:160
Departing Airport: LIEA
Destination Airport: LIBD
Alternate Airport:LIRN
Online: VATSIM
Route:KOLUS UM603 VEGAN UP748 TOPNO
Flight Level:F330
No Slew and time accel
No pause
Crash detect
Detect pilot in Cockpit between each 30 and 45 minutes
10:52 Zero fuel Weight: 135990 Lbs, Fuel Weight: 16395 Lbs
10:52 VATSIM:LIEA 141020Z 19007KT 150V210 CAVOK 26/17 Q1018
10:52 VATSIM:LIBD 141020Z 03009KT 360V060 CAVOK 25/12 Q1016
10:52 Parking Brakes off
11:03 Take-off
11:03 Take off Weight: 151495 Lbs
11:03 Wind: 190º @ 007 Knots Heading: 203º
11:03 POS N40º 37´ 44´´ E008º 17´ 20´´
11:03 Flaps:5 at 190 Knots
11:03 Gear Up: 204 Knots
11:03 Gear Down: 251 Knots
11:03 Gear Up: 258 Knots
11:04 Flaps:4 at 286 Knots
11:04 Flaps:3 at 301 Knots
11:04 Flaps:2 at 293 Knots
11:04 Flaps:1 at 289 Knots
11:04 Flaps:0 at 284 Knots
11:18 Wind:061º@033 Knots Heading: 084º Ground Speed: 372 Knots Altitude 31984 ft
11:19 TOC
11:19 Fuel Weight: 12303 Lb
11:33 Wind:248º@018 Knots Heading: 086º Ground Speed: 490 Knots Altitude 33090 ft
11:45 TOD
11:45 Fuel Weight: 9939 Lb
11:48 Wind:280º@003 Knots Heading: 093º Ground Speed: 453 Knots Altitude 29038 ft
12:02 Flaps:1 at 274 Knots
12:02 Flaps:2 at 275 Knots
12:02 Flaps:3 at 275 Knots
12:02 Flaps:4 at 274 Knots
12:03 Wind:026º@015 Knots Heading: 066º Ground Speed: 257 Knots Altitude 5321 ft
12:04 Flaps:5 at 188 Knots
12:04 Flaps:6 at 160 Knots
12:04 Gear Down: 158 Knots
12:05 Flaps:7 at 146 Knots
12:05 Flaps:6 at 140 Knots
12:05 Flaps:7 at 140 Knots
12:05 Flaps:8 at 140 Knots
12:10 TouchDown:Rate -150 ft/min Speed: 115 Knots
12:10 VATSIM:LIBD 141150Z 02010KT CAVOK 25/11 Q1016
12:10 Land
12:10 Wind:047º@009 Knots
12:10 Heading: 069º
12:10 Flight Duration: 01:07
12:10 Landing Weight: 144485 Lbs
12:10 POS N41º 08´ 18´´ E016º 45´ 36´´
12:12 Parking brakes on
12:12 Block to Block Duration: 01:20
12:12 Final Fuel: 8350 Lbls
12:12 Spent Fuel: 8044 Lbls
12:12 Flight Length: 303 NM
12:12 TOD Land Length: 132 NM

Exportar CSV

Powered by Drupal - Modified by Danger4k